createdAt,value
2023-05-24T00:02:13.975Z,101154.34
2023-05-24T00:04:41.782Z,101156.25
2023-05-24T00:07:11.766Z,101159.03
2023-05-24T00:09:38.286Z,101154.16
2023-05-24T00:12:05.639Z,101164.03
2023-05-24T00:14:32.516Z,101160.72
2023-05-24T00:16:59.082Z,101163.13
2023-05-24T00:19:25.743Z,101161.03
2023-05-24T00:21:52.220Z,101167.91
2023-05-24T00:24:18.933Z,101160.59
2023-05-24T00:26:45.552Z,101159.72
2023-05-24T00:29:12.188Z,101164.94
2023-05-24T00:31:39.224Z,101160.84
2023-05-24T00:34:06.052Z,101162.75
2023-05-24T00:36:33.074Z,101154.34
2023-05-24T00:38:59.610Z,101153.53
2023-05-24T00:41:26.775Z,101162.25
2023-05-24T00:43:53.326Z,101158.19
2023-05-24T00:46:30.586Z,101156.88
2023-05-24T00:48:57.751Z,101159.09
2023-05-24T00:51:27.318Z,101159.66
2023-05-24T00:53:54.727Z,101158.31
2023-05-24T00:56:21.226Z,101160.25
2023-05-24T00:58:50.388Z,101158.69
2023-05-24T01:01:16.916Z,101170.06
2023-05-24T01:03:44.314Z,101165.00
2023-05-24T01:06:13.570Z,101157.56
2023-05-24T01:08:40.223Z,101163.81
2023-05-24T01:11:18.417Z,101167.63
2023-05-24T01:14:26.476Z,101156.53
2023-05-24T01:17:09.777Z,101162.84
2023-05-24T01:19:56.451Z,101160.69
2023-05-24T01:26:40.019Z,101166.91
2023-05-24T01:29:06.618Z,101164.22
2023-05-24T01:31:34.923Z,101158.78
2023-05-24T01:34:01.494Z,101170.47
2023-05-24T01:36:27.952Z,101172.63
2023-05-24T01:38:55.090Z,101179.47
2023-05-24T01:41:38.227Z,101170.75
2023-05-24T01:44:13.454Z,101173.72
2023-05-24T01:46:40.034Z,101177.34
2023-05-24T01:49:13.085Z,101182.81
2023-05-24T01:51:53.986Z,101175.47
2023-05-24T01:54:25.834Z,101176.56
2023-05-24T01:56:57.357Z,101168.03
2023-05-24T01:59:26.060Z,101167.47
2023-05-24T02:01:53.047Z,101171.25
2023-05-24T02:04:19.588Z,101166.09
2023-05-24T02:06:46.086Z,101161.75
2023-05-24T02:09:12.559Z,101157.38
2023-05-24T02:11:39.010Z,101166.38
2023-05-24T02:14:05.509Z,101168.56
2023-05-24T02:16:32.070Z,101163.13
2023-05-24T02:18:58.788Z,101165.03
2023-05-24T02:21:25.878Z,101167.47
2023-05-24T02:23:52.450Z,101173.19
2023-05-24T02:26:19.050Z,101168.81
2023-05-24T02:28:45.523Z,101170.47
2023-05-24T02:31:12.160Z,101176.22
2023-05-24T02:33:38.752Z,101160.19
2023-05-24T02:36:05.279Z,101159.94
2023-05-24T02:38:32.767Z,101170.88
2023-05-24T02:40:59.189Z,101169.19
2023-05-24T02:43:25.701Z,101164.81
2023-05-24T02:45:52.193Z,101167.06
2023-05-24T02:48:18.653Z,101162.50
2023-05-24T02:50:45.313Z,101169.53
2023-05-24T02:53:11.887Z,101164.69
2023-05-24T02:55:38.662Z,101154.41
2023-05-24T02:58:05.218Z,101167.44
2023-05-24T03:00:32.301Z,101159.53
2023-05-24T03:03:02.628Z,101161.72
2023-05-24T03:05:29.176Z,101152.16
2023-05-24T03:07:56.615Z,101157.91
2023-05-24T03:10:23.089Z,101155.75
2023-05-24T03:12:49.598Z,101154.75
2023-05-24T03:15:16.826Z,101145.47
2023-05-24T03:17:43.481Z,101150.66
2023-05-24T03:20:11.701Z,101151.47
2023-05-24T03:22:38.418Z,101154.75
2023-05-24T03:25:05.435Z,101149.59
2023-05-24T03:27:31.919Z,101141.66
2023-05-24T03:29:58.390Z,101142.22
2023-05-24T03:32:24.888Z,101145.53
2023-05-24T03:34:51.404Z,101142.34
2023-05-24T03:37:20.289Z,101147.22
2023-05-24T03:39:47.329Z,101142.22
2023-05-24T03:42:13.806Z,101151.19
2023-05-24T03:44:40.523Z,101159.34
2023-05-24T03:47:07.529Z,101155.56
2023-05-24T03:49:33.965Z,101161.75
2023-05-24T03:52:00.749Z,101160.91
2023-05-24T03:54:27.268Z,101161.19
2023-05-24T03:56:53.761Z,101164.47
2023-05-24T03:59:20.266Z,101167.72
2023-05-24T04:01:46.776Z,101173.69
2023-05-24T04:04:13.342Z,101173.38
2023-05-24T04:06:41.727Z,101175.84
2023-05-24T04:09:08.263Z,101174.97
2023-05-24T04:11:36.147Z,101185.59
2023-05-24T04:14:03.446Z,101184.03
2023-05-24T04:16:33.924Z,101179.66
2023-05-24T04:19:04.272Z,101184.47
2023-05-24T04:21:33.243Z,101187.22
2023-05-24T04:24:01.551Z,101188.84
2023-05-24T04:26:28.288Z,101195.34
2023-05-24T04:28:55.883Z,101189.94
2023-05-24T04:31:22.960Z,101195.91
2023-05-24T04:33:50.127Z,101191.81
2023-05-24T04:36:17.645Z,101194.81
2023-05-24T04:38:45.727Z,101196.72
2023-05-24T04:41:12.718Z,101197.53
2023-05-24T04:43:39.203Z,101201.88
2023-05-24T04:46:06.876Z,101198.88
2023-05-24T04:48:35.364Z,101205.66
2023-05-24T04:51:03.551Z,101202.06
2023-05-24T04:53:30.457Z,101206.41
2023-05-24T04:55:57.272Z,101199.34
2023-05-24T04:58:23.704Z,101200.41
2023-05-24T05:00:50.620Z,101208.81
2023-05-24T05:03:17.640Z,101199.47
2023-05-24T05:05:45.599Z,101210.03
2023-05-24T05:08:12.224Z,101207.53
2023-05-24T05:10:38.671Z,101210.72
2023-05-24T05:13:05.141Z,101209.63
2023-05-24T05:15:32.628Z,101207.63
2023-05-24T05:17:59.212Z,101212.28
2023-05-24T05:20:28.431Z,101210.88
2023-05-24T05:22:54.930Z,101213.25
2023-05-24T05:25:21.610Z,101210.00
2023-05-24T05:27:48.172Z,101213.47
2023-05-24T05:30:14.900Z,101211.19
2023-05-24T05:32:41.488Z,101209.25
2023-05-24T05:35:08.690Z,101219.78
2023-05-24T05:37:35.163Z,101216.91
2023-05-24T05:40:01.590Z,101215.00
2023-05-24T05:42:28.205Z,101220.91
2023-05-24T05:44:54.658Z,101214.38
2023-05-24T05:47:21.136Z,101213.94
2023-05-24T05:49:47.600Z,101213.03
2023-05-24T05:52:14.140Z,101211.47
2023-05-24T05:54:40.721Z,101208.38
2023-05-24T05:57:10.412Z,101211.34
2023-05-24T05:59:38.139Z,101211.63
2023-05-24T06:02:05.828Z,101212.00
2023-05-24T06:04:32.756Z,101200.91
2023-05-24T06:09:40.189Z,101211.94
2023-05-24T06:12:06.902Z,101216.13
2023-05-24T06:14:34.854Z,101215.56
2023-05-24T06:17:02.076Z,101221.25
2023-05-24T06:19:28.545Z,101223.19
2023-05-24T06:21:55.058Z,101220.56
2023-05-24T06:24:21.612Z,101220.78
2023-05-24T06:26:49.605Z,101225.03
2023-05-24T06:29:16.634Z,101229.00
2023-05-24T06:31:43.608Z,101224.66
2023-05-24T06:34:10.360Z,101228.38
2023-05-24T06:36:41.320Z,101232.44
2023-05-24T06:39:08.454Z,101239.34
2023-05-24T06:41:35.396Z,101235.31
2023-05-24T06:44:02.018Z,101231.88
2023-05-24T06:46:29.953Z,101232.97
2023-05-24T06:48:56.584Z,101231.47
2023-05-24T06:51:23.226Z,101237.72
2023-05-24T06:53:50.111Z,101247.47
2023-05-24T06:56:16.768Z,101244.84
2023-05-24T06:58:44.030Z,101246.66
2023-05-24T07:01:11.265Z,101242.50
2023-05-24T07:03:37.743Z,101249.72
2023-05-24T07:06:04.263Z,101251.63
2023-05-24T07:08:30.764Z,101248.56
2023-05-24T07:10:57.276Z,101248.25
2023-05-24T07:13:23.726Z,101246.41
2023-05-24T07:15:50.209Z,101247.94
2023-05-24T07:18:16.713Z,101253.72
2023-05-24T07:20:43.555Z,101247.94
2023-05-24T07:23:10.623Z,101251.09
2023-05-24T07:25:37.407Z,101251.38
2023-05-24T07:28:03.964Z,101252.91
2023-05-24T07:30:32.466Z,101248.34
2023-05-24T07:33:13.576Z,101255.56
2023-05-24T07:35:40.270Z,101251.75
2023-05-24T07:38:07.007Z,101248.72
2023-05-24T07:40:33.838Z,101247.19
2023-05-24T07:43:00.341Z,101242.44
2023-05-24T07:45:26.834Z,101253.72
2023-05-24T07:47:55.259Z,101250.31
2023-05-24T07:50:23.408Z,101247.88
2023-05-24T07:52:50.140Z,101247.13
2023-05-24T07:55:16.830Z,101250.09
2023-05-24T07:57:43.270Z,101253.13
2023-05-24T08:00:14.261Z,101245.41
2023-05-24T08:02:44.274Z,101244.19
2023-05-24T08:05:12.695Z,101242.59
2023-05-24T08:07:40.219Z,101237.63
2023-05-24T08:10:07.860Z,101244.03
2023-05-24T08:12:34.273Z,101239.06
2023-05-24T08:15:00.917Z,101243.97
2023-05-24T08:17:27.613Z,101239.16
2023-05-24T08:19:54.245Z,101236.84
2023-05-24T08:22:21.009Z,101240.50
2023-05-24T08:24:47.572Z,101234.47
2023-05-24T08:27:14.780Z,101232.53
2023-05-24T08:29:41.569Z,101247.94
2023-05-24T08:32:11.313Z,101251.53
2023-05-24T08:34:38.450Z,101239.63
2023-05-24T08:37:05.486Z,101241.91
2023-05-24T08:39:32.064Z,101242.03
2023-05-24T08:44:31.783Z,101248.34
2023-05-24T08:46:58.630Z,101248.66
2023-05-24T08:49:25.909Z,101249.47
2023-05-24T08:51:53.195Z,101254.34
2023-05-24T08:54:20.519Z,101252.84
2023-05-24T08:56:48.290Z,101249.41
2023-05-24T08:59:15.637Z,101256.34
2023-05-24T09:01:43.102Z,101258.59
2023-05-24T09:04:10.057Z,101257.78
2023-05-24T09:06:37.066Z,101267.59
2023-05-24T09:09:04.094Z,101256.75
2023-05-24T09:11:33.338Z,101256.28
2023-05-24T09:14:00.706Z,101263.06
2023-05-24T09:16:27.964Z,101263.06
2023-05-24T09:18:54.508Z,101260.19
2023-05-24T09:21:22.235Z,101264.19
2023-05-24T09:23:49.423Z,101266.13
2023-05-24T09:26:15.945Z,101266.31
2023-05-24T09:28:42.806Z,101261.69
2023-05-24T09:31:09.362Z,101263.53
2023-05-24T09:33:36.284Z,101266.44
2023-05-24T09:36:05.385Z,101263.56
2023-05-24T09:38:32.304Z,101254.34
2023-05-24T09:41:08.752Z,101268.06
2023-05-24T09:43:48.601Z,101271.25
2023-05-24T09:46:19.985Z,101272.81
2023-05-24T09:48:57.692Z,101279.59
2023-05-24T09:51:24.618Z,101289.69
2023-05-24T09:53:54.296Z,101279.63
2023-05-24T09:56:23.655Z,101278.75
2023-05-24T09:58:51.594Z,101284.66
2023-05-24T10:01:19.086Z,101285.72
2023-05-24T10:03:54.161Z,101284.41
2023-05-24T10:06:21.041Z,101280.72
2023-05-24T10:08:49.078Z,101276.59
2023-05-24T10:11:15.636Z,101279.72
2023-05-24T10:13:42.432Z,101275.28
2023-05-24T10:16:08.909Z,101277.50
2023-05-24T10:18:35.659Z,101274.63
2023-05-24T10:21:07.884Z,101271.31
2023-05-24T10:23:37.888Z,101278.09
2023-05-24T10:26:13.864Z,101281.63
2023-05-24T10:28:44.656Z,101280.81
2023-05-24T10:31:15.778Z,101283.22
2023-05-24T10:33:44.331Z,101284.09
2023-05-24T10:36:14.158Z,101275.28
2023-05-24T10:38:41.011Z,101285.59
2023-05-24T10:41:08.481Z,101284.72
2023-05-24T10:43:38.377Z,101281.78
2023-05-24T10:46:08.307Z,101281.38
2023-05-24T10:48:37.046Z,101287.75
2023-05-24T10:51:32.976Z,101290.38
2023-05-24T10:54:14.419Z,101289.91
2023-05-24T10:56:43.913Z,101283.88
2023-05-24T10:59:28.355Z,101286.09
2023-05-24T11:01:57.660Z,101284.09
2023-05-24T11:04:24.345Z,101293.81
2023-05-24T11:06:58.262Z,101284.44
2023-05-24T11:09:25.258Z,101286.84
2023-05-24T11:11:56.098Z,101295.28
2023-05-24T11:14:28.993Z,101298.22
2023-05-24T11:16:58.598Z,101295.66
2023-05-24T11:19:32.667Z,101296.38
2023-05-24T11:21:59.995Z,101293.75
2023-05-24T11:24:27.866Z,101298.78
2023-05-24T11:26:55.006Z,101292.63
2023-05-24T11:29:22.499Z,101291.19
2023-05-24T11:32:06.170Z,101292.59
2023-05-24T11:34:33.681Z,101290.34
2023-05-24T11:37:01.772Z,101289.97
2023-05-24T11:39:31.771Z,101293.78
2023-05-24T11:41:58.835Z,101302.78
2023-05-24T11:44:27.951Z,101297.91
2023-05-24T11:47:01.697Z,101304.91
2023-05-24T11:49:28.534Z,101303.00
2023-05-24T11:51:57.033Z,101310.75
2023-05-24T11:54:24.564Z,101293.97
2023-05-24T11:56:52.972Z,101282.53
2023-05-24T11:59:25.375Z,101291.97
2023-05-24T12:02:03.770Z,101291.34
2023-05-24T12:04:32.119Z,101291.50
2023-05-24T12:06:59.329Z,101287.59
2023-05-24T12:09:26.560Z,101288.88
2023-05-24T12:12:01.905Z,101295.38
2023-05-24T12:14:32.828Z,101282.66
2023-05-24T12:17:00.841Z,101290.22
2023-05-24T12:19:35.178Z,101291.34
2023-05-24T12:22:07.545Z,101290.34
2023-05-24T12:24:34.675Z,101286.59
2023-05-24T12:27:06.567Z,101280.63
2023-05-24T12:29:35.531Z,101287.41
2023-05-24T12:32:02.902Z,101283.00
2023-05-24T12:34:30.145Z,101287.28
2023-05-24T12:36:56.748Z,101287.34
2023-05-24T12:39:33.908Z,101282.25
2023-05-24T12:42:04.219Z,101281.25
2023-05-24T12:44:33.954Z,101280.41
2023-05-24T12:47:02.611Z,101276.19
2023-05-24T12:49:29.926Z,101275.78
2023-05-24T12:51:57.099Z,101276.38
2023-05-24T12:54:25.663Z,101277.16
2023-05-24T12:56:55.592Z,101278.41
2023-05-24T12:59:23.121Z,101273.72
2023-05-24T13:01:52.997Z,101269.63
2023-05-24T13:04:21.540Z,101270.69
2023-05-24T13:06:49.143Z,101264.44
2023-05-24T13:09:19.234Z,101264.88
2023-05-24T13:11:46.514Z,101266.94
2023-05-24T13:14:13.053Z,101261.91
2023-05-24T13:16:39.655Z,101258.94
2023-05-24T13:19:06.258Z,101259.25
2023-05-24T13:21:32.775Z,101267.94
2023-05-24T13:23:59.382Z,101266.03
2023-05-24T13:26:25.964Z,101259.97
2023-05-24T13:29:11.811Z,101261.31
2023-05-24T13:31:39.056Z,101258.47
2023-05-24T13:34:06.254Z,101254.31
2023-05-24T13:36:35.236Z,101250.59
2023-05-24T13:39:14.987Z,101261.25
2023-05-24T13:41:43.293Z,101266.28
2023-05-24T13:44:10.544Z,101275.34
2023-05-24T13:46:38.262Z,101263.63
2023-05-24T13:49:05.514Z,101260.28
2023-05-24T13:51:32.099Z,101264.03
2023-05-24T13:53:58.973Z,101270.69
2023-05-24T13:56:25.933Z,101266.31
2023-05-24T13:58:53.323Z,101270.91
2023-05-24T14:01:19.953Z,101261.03
2023-05-24T14:03:46.636Z,101259.53
2023-05-24T14:06:13.376Z,101256.41
2023-05-24T14:08:40.002Z,101259.13
2023-05-24T14:11:06.569Z,101252.78
2023-05-24T14:14:32.833Z,101261.84
2023-05-24T14:16:20.118Z,101251.66
2023-05-24T14:18:48.926Z,101251.13
2023-05-24T14:21:15.843Z,101250.44
2023-05-24T14:23:42.350Z,101253.75
2023-05-24T14:26:08.790Z,101255.34
2023-05-24T14:28:35.394Z,101256.41
2023-05-24T14:31:02.579Z,101251.66
2023-05-24T14:33:29.148Z,101255.91
2023-05-24T14:35:55.636Z,101254.78
2023-05-24T14:38:23.879Z,101253.69
2023-05-24T14:40:51.221Z,101256.44
2023-05-24T14:43:18.066Z,101255.34
2023-05-24T14:45:44.839Z,101265.91
2023-05-24T14:48:12.486Z,101258.03
2023-05-24T14:50:40.719Z,101257.63
2023-05-24T14:53:12.162Z,101257.94
2023-05-24T14:55:41.062Z,101264.19
2023-05-24T14:58:09.262Z,101258.25
2023-05-24T15:00:36.739Z,101263.97
2023-05-24T15:03:03.540Z,101261.06
2023-05-24T15:05:30.217Z,101260.25
2023-05-24T15:07:57.056Z,101268.78
2023-05-24T15:10:23.704Z,101275.13
2023-05-24T15:12:51.945Z,101260.69
2023-05-24T15:15:19.004Z,101269.69
2023-05-24T15:17:46.508Z,101268.41
2023-05-24T15:20:13.053Z,101263.06
2023-05-24T15:22:39.632Z,101263.53
2023-05-24T15:25:07.162Z,101269.78
2023-05-24T15:27:34.231Z,101260.03
2023-05-24T15:30:00.761Z,101259.34
2023-05-24T15:32:27.371Z,101253.97
2023-05-24T15:34:53.901Z,101260.75
2023-05-24T15:37:21.835Z,101261.19
2023-05-24T15:39:49.265Z,101268.88
2023-05-24T15:42:16.194Z,101265.56
2023-05-24T15:44:42.749Z,101262.09
2023-05-24T15:47:09.525Z,101254.91
2023-05-24T15:49:35.987Z,101261.13
2023-05-24T15:52:04.754Z,101260.88
2023-05-24T15:54:31.994Z,101251.38
2023-05-24T15:57:00.536Z,101251.38
2023-05-24T15:59:27.504Z,101255.16
2023-05-24T16:01:55.041Z,101258.78
2023-05-24T16:04:21.676Z,101247.84
2023-05-24T16:06:49.208Z,101255.06
2023-05-24T16:09:16.054Z,101254.97
2023-05-24T16:11:42.600Z,101260.84
2023-05-24T16:14:10.814Z,101257.06
2023-05-24T16:16:37.890Z,101259.81
2023-05-24T16:19:04.719Z,101263.91
2023-05-24T16:21:32.658Z,101265.38
2023-05-24T16:24:01.624Z,101258.47
2023-05-24T16:26:30.675Z,101268.31
2023-05-24T16:28:57.142Z,101273.38
2023-05-24T16:31:23.937Z,101262.69
2023-05-24T16:33:50.600Z,101261.88
2023-05-24T16:36:17.190Z,101263.69
2023-05-24T16:38:43.686Z,101269.81
2023-05-24T16:41:10.775Z,101275.81
2023-05-24T16:43:37.339Z,101267.41
2023-05-24T16:46:03.939Z,101273.72
2023-05-24T16:48:31.587Z,101274.69
2023-05-24T16:50:58.804Z,101275.50
2023-05-24T16:53:26.835Z,101272.56
2023-05-24T16:55:55.568Z,101273.22
2023-05-24T16:58:22.441Z,101280.81
2023-05-24T17:00:49.208Z,101274.34
2023-05-24T17:03:15.933Z,101280.97
2023-05-24T17:05:43.484Z,101273.72
2023-05-24T17:08:09.988Z,101274.03
2023-05-24T17:10:36.596Z,101269.19
2023-05-24T17:13:03.182Z,101264.03
2023-05-24T17:15:29.651Z,101275.81
2023-05-24T17:17:56.239Z,101278.72
2023-05-24T17:20:22.992Z,101280.03
2023-05-24T17:22:49.676Z,101282.78
2023-05-24T17:25:16.399Z,101279.53
2023-05-24T17:27:42.965Z,101280.19
2023-05-24T17:30:09.917Z,101277.56
2023-05-24T17:32:36.657Z,101280.94
2023-05-24T17:35:03.900Z,101279.00
2023-05-24T17:37:30.472Z,101285.47
2023-05-24T17:39:57.064Z,101281.22
2023-05-24T17:42:24.800Z,101286.72
2023-05-24T17:44:51.329Z,101288.78
2023-05-24T17:47:18.199Z,101278.94
2023-05-24T17:49:44.667Z,101287.16
2023-05-24T17:52:13.999Z,101294.88
2023-05-24T17:54:40.724Z,101289.56
2023-05-24T17:57:07.722Z,101294.56
2023-05-24T17:59:34.215Z,101302.59
2023-05-24T18:02:00.650Z,101299.03
2023-05-24T18:04:27.207Z,101303.00
2023-05-24T18:06:54.868Z,101304.78
2023-05-24T18:09:21.508Z,101304.59
2023-05-24T18:11:48.097Z,101303.09
2023-05-24T18:14:14.576Z,101312.47
2023-05-24T18:16:41.309Z,101302.13
2023-05-24T18:19:08.143Z,101312.88
2023-05-24T18:21:34.674Z,101305.47
2023-05-24T18:24:01.489Z,101303.84
2023-05-24T18:26:28.644Z,101308.19
2023-05-24T18:28:55.122Z,101312.88
2023-05-24T18:31:21.895Z,101315.22
2023-05-24T18:33:48.714Z,101318.28
2023-05-24T18:36:15.331Z,101321.38
2023-05-24T18:38:42.572Z,101315.06
2023-05-24T18:41:12.471Z,101322.38
2023-05-24T18:43:39.196Z,101324.31
2023-05-24T18:46:05.790Z,101323.34
2023-05-24T18:48:32.238Z,101322.31
2023-05-24T18:50:58.732Z,101317.75
2023-05-24T18:53:25.923Z,101324.19
2023-05-24T18:55:52.505Z,101325.25
2023-05-24T18:58:18.948Z,101326.38
2023-05-24T19:00:45.547Z,101336.94
2023-05-24T19:03:13.260Z,101335.75
2023-05-24T19:05:42.778Z,101337.63
2023-05-24T19:08:10.740Z,101349.88
2023-05-24T19:10:37.191Z,101348.19
2023-05-24T19:13:03.709Z,101343.13
2023-05-24T19:15:30.377Z,101359.25
2023-05-24T19:17:57.855Z,101356.91
2023-05-24T19:20:24.802Z,101349.72
2023-05-24T19:22:51.342Z,101356.88
2023-05-24T19:25:17.821Z,101361.75
2023-05-24T19:27:58.500Z,101363.56
2023-05-24T19:30:26.817Z,101369.94
2023-05-24T19:32:53.399Z,101361.91
2023-05-24T19:35:19.978Z,101368.09
2023-05-24T19:37:46.615Z,101370.91
2023-05-24T19:40:13.087Z,101370.50
2023-05-24T19:42:39.737Z,101375.50
2023-05-24T19:45:07.095Z,101380.06
2023-05-24T19:47:33.642Z,101377.59
2023-05-24T19:50:00.239Z,101388.63
2023-05-24T19:52:26.702Z,101391.44
2023-05-24T19:54:53.221Z,101386.94
2023-05-24T19:57:19.683Z,101386.94
2023-05-24T19:59:46.219Z,101393.59
2023-05-24T20:02:12.716Z,101391.81
2023-05-24T20:04:42.004Z,101394.66
2023-05-24T20:07:08.989Z,101399.47
2023-05-24T20:09:35.935Z,101396.34
2023-05-24T20:12:02.701Z,101405.25
2023-05-24T20:14:31.352Z,101404.06
2023-05-24T20:16:58.213Z,101413.47
2023-05-24T20:19:26.165Z,101411.94
2023-05-24T20:21:52.807Z,101421.56
2023-05-24T20:24:19.469Z,101414.56
2023-05-24T20:26:46.416Z,101421.97
2023-05-24T20:29:12.897Z,101419.59
2023-05-24T20:31:39.474Z,101421.25
2023-05-24T20:34:05.978Z,101426.25
2023-05-24T20:36:33.146Z,101422.16
2023-05-24T20:38:59.698Z,101423.81
2023-05-24T20:41:26.604Z,101430.75
2023-05-24T20:43:53.233Z,101431.97
2023-05-24T20:46:19.862Z,101434.56
2023-05-24T20:48:46.672Z,101431.38
2023-05-24T20:51:13.222Z,101433.31
2023-05-24T20:53:40.293Z,101435.22
2023-05-24T20:56:07.133Z,101434.41
2023-05-24T20:58:33.699Z,101433.06
2023-05-24T21:01:00.232Z,101442.59
2023-05-24T21:03:26.963Z,101447.53
2023-05-24T21:05:53.614Z,101448.16
2023-05-24T21:08:20.332Z,101441.91
2023-05-24T21:10:46.943Z,101450.88
2023-05-24T21:13:13.479Z,101456.31
2023-05-24T21:15:39.965Z,101457.16
2023-05-24T21:18:06.604Z,101462.34
2023-05-24T21:20:33.254Z,101466.97
2023-05-24T21:23:00.390Z,101480.03
2023-05-24T21:25:27.343Z,101465.34
2023-05-24T21:27:54.724Z,101477.59
2023-05-24T21:30:21.599Z,101468.66
2023-05-24T21:32:48.535Z,101468.41
2023-05-24T21:35:15.726Z,101470.06
2023-05-24T21:37:42.258Z,101479.84
2023-05-24T21:40:09.082Z,101485.06
2023-05-24T21:42:37.131Z,101494.84
2023-05-24T21:45:04.625Z,101481.25
2023-05-24T21:47:31.294Z,101488.84
2023-05-24T21:49:57.857Z,101489.69
2023-05-24T21:52:24.353Z,101484.53
2023-05-24T21:54:50.878Z,101486.97
2023-05-24T21:57:17.519Z,101488.59
2023-05-24T21:59:44.078Z,101492.41
2023-05-24T22:02:10.615Z,101497.56
2023-05-24T22:04:37.143Z,101496.22
2023-05-24T22:07:03.861Z,101498.41
2023-05-24T22:09:30.649Z,101494.63
2023-05-24T22:11:57.136Z,101495.16
2023-05-24T22:14:23.596Z,101503.00
2023-05-24T22:16:50.807Z,101491.59
2023-05-24T22:19:25.334Z,101506.25
2023-05-24T22:21:59.669Z,101498.91
2023-05-24T22:24:27.202Z,101498.66
2023-05-24T22:26:53.777Z,101492.13
2023-05-24T22:29:20.317Z,101493.50
2023-05-24T22:31:46.858Z,101496.72
2023-05-24T22:34:13.416Z,101494.56
2023-05-24T22:36:40.434Z,101507.06
2023-05-24T22:39:07.260Z,101501.91
2023-05-24T22:41:34.126Z,101505.44
2023-05-24T22:44:00.702Z,101494.03
2023-05-24T22:46:27.411Z,101501.38
2023-05-24T22:48:56.451Z,101497.53
2023-05-24T22:51:26.202Z,101499.72
2023-05-24T22:53:52.894Z,101496.72
2023-05-24T22:56:19.575Z,101506.50
2023-05-24T22:58:46.619Z,101499.16
2023-05-24T23:01:13.102Z,101516.00
2023-05-24T23:03:39.758Z,101504.31
2023-05-24T23:06:07.617Z,101506.75
2023-05-24T23:08:34.417Z,101517.88
2023-05-24T23:11:01.011Z,101513.50
2023-05-24T23:13:35.868Z,101514.03
2023-05-24T23:16:02.695Z,101509.13
2023-05-24T23:18:29.238Z,101500.69
2023-05-24T23:20:56.119Z,101497.69
2023-05-24T23:23:24.839Z,101508.53
2023-05-24T23:25:51.878Z,101507.16
2023-05-24T23:28:18.627Z,101498.22
2023-05-24T23:30:45.720Z,101508.53
2023-05-24T23:33:12.163Z,101510.22
2023-05-24T23:35:39.787Z,101498.00
2023-05-24T23:38:06.466Z,101506.94
2023-05-24T23:40:33.839Z,101515.38
2023-05-24T23:43:00.589Z,101514.84
2023-05-24T23:45:27.043Z,101516.47
2023-05-24T23:47:53.779Z,101511.88
2023-05-24T23:50:22.851Z,101518.34
2023-05-24T23:52:49.680Z,101518.88
2023-05-24T23:55:16.478Z,101512.06
2023-05-24T23:57:43.128Z,101528.53
